sensor_id;sensor_type;location;lat;lon;timestamp;P1;durP1;ratioP1;P2;durP2;ratioP2
1000;SDS011;489;47.806;12.858;2024-01-10T00:01:24;27.90;;;13.87;;
1000;SDS011;489;47.806;12.858;2024-01-10T00:03:27;29.40;;;14.47;;
1000;SDS011;489;47.806;12.858;2024-01-10T00:05:30;30.67;;;15.03;;
1000;SDS011;489;47.806;12.858;2024-01-10T00:07:32;30.07;;;14.67;;
1000;SDS011;489;47.806;12.858;2024-01-10T00:09:33;29.00;;;14.60;;
1000;SDS011;489;47.806;12.858;2024-01-10T00:11:35;30.53;;;13.90;;
1000;SDS011;489;47.806;12.858;2024-01-10T00:13:37;28.47;;;13.10;;
1000;SDS011;489;47.806;12.858;2024-01-10T00:15:39;30.10;;;15.47;;
1000;SDS011;489;47.806;12.858;2024-01-10T00:17:41;26.83;;;12.17;;
1000;SDS011;489;47.806;12.858;2024-01-10T00:19:43;31.97;;;14.90;;
1000;SDS011;489;47.806;12.858;2024-01-10T00:21:46;28.27;;;13.90;;
1000;SDS011;489;47.806;12.858;2024-01-10T00:23:48;26.30;;;14.20;;
1000;SDS011;489;47.806;12.858;2024-01-10T00:25:50;26.77;;;13.87;;
1000;SDS011;489;47.806;12.858;2024-01-10T00:27:51;33.70;;;15.43;;
1000;SDS011;489;47.806;12.858;2024-01-10T00:29:53;26.67;;;14.57;;
1000;SDS011;489;47.806;12.858;2024-01-10T00:31:57;33.53;;;14.30;;
1000;SDS011;489;47.806;12.858;2024-01-10T00:33:59;35.57;;;15.43;;
1000;SDS011;489;47.806;12.858;2024-01-10T00:36:01;25.30;;;12.80;;
1000;SDS011;489;47.806;12.858;2024-01-10T00:38:04;25.00;;;13.63;;
1000;SDS011;489;47.806;12.858;2024-01-10T00:40:06;29.33;;;14.87;;
1000;SDS011;489;47.806;12.858;2024-01-10T00:42:09;30.27;;;15.87;;
1000;SDS011;489;47.806;12.858;2024-01-10T00:44:10;32.57;;;15.60;;
1000;SDS011;489;47.806;12.858;2024-01-10T00:46:12;32.83;;;15.23;;
1000;SDS011;489;47.806;12.858;2024-01-10T00:48:15;28.17;;;14.30;;
1000;SDS011;489;47.806;12.858;2024-01-10T00:50:17;33.97;;;15.00;;
1000;SDS011;489;47.806;12.858;2024-01-10T00:52:19;27.30;;;13.63;;
1000;SDS011;489;47.806;12.858;2024-01-10T00:54:23;32.13;;;14.00;;
1000;SDS011;489;47.806;12.858;2024-01-10T00:56:25;27.67;;;16.27;;
1000;SDS011;489;47.806;12.858;2024-01-10T00:58:27;32.27;;;16.07;;
1000;SDS011;489;47.806;12.858;2024-01-10T01:00:29;29.23;;;13.97;;
1000;SDS011;489;47.806;12.858;2024-01-10T01:02:31;29.47;;;15.03;;
1000;SDS011;489;47.806;12.858;2024-01-10T01:04:32;32.23;;;15.07;;
1000;SDS011;489;47.806;12.858;2024-01-10T01:06:34;28.90;;;14.40;;
1000;SDS011;489;47.806;12.858;2024-01-10T01:08:36;33.43;;;15.30;;
1000;SDS011;489;47.806;12.858;2024-01-10T01:10:40;27.43;;;14.10;;
1000;SDS011;489;47.806;12.858;2024-01-10T01:12:42;28.43;;;15.47;;
1000;SDS011;489;47.806;12.858;2024-01-10T01:14:44;30.20;;;14.97;;
1000;SDS011;489;47.806;12.858;2024-01-10T01:16:46;32.40;;;15.60;;
1000;SDS011;489;47.806;12.858;2024-01-10T01:18:48;30.20;;;16.20;;
1000;SDS011;489;47.806;12.858;2024-01-10T01:20:50;32.07;;;15.50;;
1000;SDS011;489;47.806;12.858;2024-01-10T01:22:52;29.00;;;14.20;;
1000;SDS011;489;47.806;12.858;2024-01-10T01:24:54;28.77;;;14.90;;
1000;SDS011;489;47.806;12.858;2024-01-10T01:26:57;26.40;;;14.53;;
1000;SDS011;489;47.806;12.858;2024-01-10T01:28:59;30.43;;;15.40;;
1000;SDS011;489;47.806;12.858;2024-01-10T01:31:20;29.60;;;14.37;;
1000;SDS011;489;47.806;12.858;2024-01-10T01:33:22;31.10;;;14.07;;
1000;SDS011;489;47.806;12.858;2024-01-10T01:35:24;29.87;;;14.97;;
1000;SDS011;489;47.806;12.858;2024-01-10T01:37:28;30.70;;;14.70;;
1000;SDS011;489;47.806;12.858;2024-01-10T01:39:30;33.00;;;15.03;;
1000;SDS011;489;47.806;12.858;2024-01-10T01:41:32;29.87;;;14.97;;
1000;SDS011;489;47.806;12.858;2024-01-10T01:43:56;25.40;;;12.80;;
1000;SDS011;489;47.806;12.858;2024-01-10T01:45:58;27.87;;;14.40;;
1000;SDS011;489;47.806;12.858;2024-01-10T01:48:00;31.03;;;14.67;;
1000;SDS011;489;47.806;12.858;2024-01-10T01:50:02;35.47;;;15.57;;
1000;SDS011;489;47.806;12.858;2024-01-10T01:52:04;24.67;;;14.63;;
1000;SDS011;489;47.806;12.858;2024-01-10T01:54:07;30.43;;;14.97;;
1000;SDS011;489;47.806;12.858;2024-01-10T01:56:09;31.03;;;15.30;;
1000;SDS011;489;47.806;12.858;2024-01-10T01:58:12;30.37;;;14.37;;
1000;SDS011;489;47.806;12.858;2024-01-10T02:00:16;28.60;;;14.17;;
1000;SDS011;489;47.806;12.858;2024-01-10T02:02:18;32.17;;;15.27;;
1000;SDS011;489;47.806;12.858;2024-01-10T02:04:19;31.63;;;14.90;;
1000;SDS011;489;47.806;12.858;2024-01-10T02:06:22;30.07;;;14.80;;
1000;SDS011;489;47.806;12.858;2024-01-10T02:08:24;30.23;;;14.37;;
1000;SDS011;489;47.806;12.858;2024-01-10T02:10:25;32.00;;;14.73;;
1000;SDS011;489;47.806;12.858;2024-01-10T02:12:29;28.83;;;13.90;;
1000;SDS011;489;47.806;12.858;2024-01-10T02:14:31;32.47;;;15.03;;
1000;SDS011;489;47.806;12.858;2024-01-10T02:16:34;33.67;;;16.07;;
1000;SDS011;489;47.806;12.858;2024-01-10T02:18:36;29.23;;;14.73;;
1000;SDS011;489;47.806;12.858;2024-01-10T02:20:39;28.27;;;12.53;;
1000;SDS011;489;47.806;12.858;2024-01-10T02:22:42;27.90;;;13.93;;
1000;SDS011;489;47.806;12.858;2024-01-10T02:24:44;33.47;;;15.77;;
1000;SDS011;489;47.806;12.858;2024-01-10T02:26:50;32.37;;;16.00;;
1000;SDS011;489;47.806;12.858;2024-01-10T02:28:52;28.27;;;14.90;;
1000;SDS011;489;47.806;12.858;2024-01-10T02:30:54;26.10;;;14.63;;
1000;SDS011;489;47.806;12.858;2024-01-10T02:32:56;33.27;;;16.07;;
1000;SDS011;489;47.806;12.858;2024-01-10T02:34:58;22.10;;;13.30;;
1000;SDS011;489;47.806;12.858;2024-01-10T02:36:59;28.70;;;13.90;;
1000;SDS011;489;47.806;12.858;2024-01-10T02:39:01;28.30;;;14.30;;
1000;SDS011;489;47.806;12.858;2024-01-10T02:41:03;33.23;;;15.17;;
1000;SDS011;489;47.806;12.858;2024-01-10T02:43:06;27.73;;;13.77;;
1000;SDS011;489;47.806;12.858;2024-01-10T02:45:12;30.27;;;15.67;;
1000;SDS011;489;47.806;12.858;2024-01-10T02:47:13;30.17;;;15.70;;
1000;SDS011;489;47.806;12.858;2024-01-10T02:49:15;37.17;;;15.10;;
1000;SDS011;489;47.806;12.858;2024-01-10T02:51:18;30.87;;;14.77;;
1000;SDS011;489;47.806;12.858;2024-01-10T02:53:20;29.27;;;14.17;;
1000;SDS011;489;47.806;12.858;2024-01-10T02:55:22;29.77;;;14.17;;
1000;SDS011;489;47.806;12.858;2024-01-10T02:57:24;33.77;;;14.47;;
1000;SDS011;489;47.806;12.858;2024-01-10T02:59:27;30.77;;;15.50;;
1000;SDS011;489;47.806;12.858;2024-01-10T03:01:29;31.17;;;14.63;;
1000;SDS011;489;47.806;12.858;2024-01-10T03:03:31;31.90;;;14.20;;
1000;SDS011;489;47.806;12.858;2024-01-10T03:05:33;34.80;;;13.57;;
1000;SDS011;489;47.806;12.858;2024-01-10T03:07:35;27.77;;;13.70;;
1000;SDS011;489;47.806;12.858;2024-01-10T03:09:38;34.13;;;14.60;;
1000;SDS011;489;47.806;12.858;2024-01-10T03:11:40;27.93;;;14.37;;
1000;SDS011;489;47.806;12.858;2024-01-10T03:13:43;30.03;;;13.70;;
1000;SDS011;489;47.806;12.858;2024-01-10T03:15:46;34.00;;;16.27;;
1000;SDS011;489;47.806;12.858;2024-01-10T03:17:47;25.00;;;13.17;;
1000;SDS011;489;47.806;12.858;2024-01-10T03:19:50;26.40;;;12.60;;
1000;SDS011;489;47.806;12.858;2024-01-10T03:21:52;32.43;;;14.37;;
1000;SDS011;489;47.806;12.858;2024-01-10T03:24:16;26.13;;;14.00;;
1000;SDS011;489;47.806;12.858;2024-01-10T03:26:18;29.13;;;13.20;;
1000;SDS011;489;47.806;12.858;2024-01-10T03:28:19;24.20;;;12.37;;
1000;SDS011;489;47.806;12.858;2024-01-10T03:30:21;30.50;;;15.37;;
1000;SDS011;489;47.806;12.858;2024-01-10T03:32:26;31.33;;;15.73;;
1000;SDS011;489;47.806;12.858;2024-01-10T03:34:28;30.27;;;13.53;;
1000;SDS011;489;47.806;12.858;2024-01-10T03:36:29;30.87;;;14.33;;
1000;SDS011;489;47.806;12.858;2024-01-10T03:38:31;27.90;;;11.50;;
1000;SDS011;489;47.806;12.858;2024-01-10T03:40:33;26.27;;;13.87;;
1000;SDS011;489;47.806;12.858;2024-01-10T03:42:35;27.53;;;13.20;;
1000;SDS011;489;47.806;12.858;2024-01-10T03:44:59;24.80;;;12.50;;
1000;SDS011;489;47.806;12.858;2024-01-10T03:47:01;26.30;;;12.87;;
1000;SDS011;489;47.806;12.858;2024-01-10T03:49:04;29.73;;;12.10;;
1000;SDS011;489;47.806;12.858;2024-01-10T03:51:06;23.77;;;11.60;;
1000;SDS011;489;47.806;12.858;2024-01-10T03:53:08;28.57;;;12.50;;
1000;SDS011;489;47.806;12.858;2024-01-10T03:55:09;26.23;;;13.37;;
1000;SDS011;489;47.806;12.858;2024-01-10T03:57:13;31.10;;;14.30;;
1000;SDS011;489;47.806;12.858;2024-01-10T03:59:14;27.03;;;12.00;;
1000;SDS011;489;47.806;12.858;2024-01-10T04:01:16;23.70;;;12.77;;
1000;SDS011;489;47.806;12.858;2024-01-10T04:03:17;28.50;;;12.73;;
1000;SDS011;489;47.806;12.858;2024-01-10T04:05:21;24.87;;;11.60;;
1000;SDS011;489;47.806;12.858;2024-01-10T04:07:26;29.33;;;12.07;;
1000;SDS011;489;47.806;12.858;2024-01-10T04:09:28;25.90;;;12.83;;
1000;SDS011;489;47.806;12.858;2024-01-10T04:11:30;21.23;;;10.40;;
1000;SDS011;489;47.806;12.858;2024-01-10T04:13:32;26.67;;;13.40;;
1000;SDS011;489;47.806;12.858;2024-01-10T04:15:33;27.33;;;12.77;;
1000;SDS011;489;47.806;12.858;2024-01-10T04:17:36;22.00;;;11.87;;
1000;SDS011;489;47.806;12.858;2024-01-10T04:19:37;28.97;;;12.10;;
1000;SDS011;489;47.806;12.858;2024-01-10T04:21:41;26.00;;;11.37;;
1000;SDS011;489;47.806;12.858;2024-01-10T04:23:42;27.40;;;12.73;;
1000;SDS011;489;47.806;12.858;2024-01-10T04:25:44;24.57;;;13.23;;
1000;SDS011;489;47.806;12.858;2024-01-10T04:27:46;34.83;;;13.53;;
1000;SDS011;489;47.806;12.858;2024-01-10T04:29:47;29.50;;;13.97;;
1000;SDS011;489;47.806;12.858;2024-01-10T04:31:49;31.33;;;12.20;;
1000;SDS011;489;47.806;12.858;2024-01-10T04:33:51;24.40;;;12.90;;
1000;SDS011;489;47.806;12.858;2024-01-10T04:35:53;30.50;;;13.80;;
1000;SDS011;489;47.806;12.858;2024-01-10T04:37:56;31.27;;;13.70;;
1000;SDS011;489;47.806;12.858;2024-01-10T04:39:59;26.93;;;13.67;;
1000;SDS011;489;47.806;12.858;2024-01-10T04:42:01;30.17;;;14.23;;
1000;SDS011;489;47.806;12.858;2024-01-10T04:44:03;28.57;;;14.37;;
1000;SDS011;489;47.806;12.858;2024-01-10T04:46:05;29.90;;;14.93;;
1000;SDS011;489;47.806;12.858;2024-01-10T04:48:08;35.30;;;14.53;;
1000;SDS011;489;47.806;12.858;2024-01-10T04:50:10;29.10;;;14.07;;
1000;SDS011;489;47.806;12.858;2024-01-10T04:52:11;31.37;;;14.33;;
1000;SDS011;489;47.806;12.858;2024-01-10T04:54:15;28.07;;;14.30;;
1000;SDS011;489;47.806;12.858;2024-01-10T04:56:17;29.23;;;14.03;;
1000;SDS011;489;47.806;12.858;2024-01-10T04:58:19;29.07;;;14.53;;
1000;SDS011;489;47.806;12.858;2024-01-10T05:00:21;32.30;;;15.70;;
1000;SDS011;489;47.806;12.858;2024-01-10T05:02:23;47.97;;;20.03;;
1000;SDS011;489;47.806;12.858;2024-01-10T05:04:24;36.50;;;16.97;;
1000;SDS011;489;47.806;12.858;2024-01-10T05:06:44;27.07;;;13.63;;
1000;SDS011;489;47.806;12.858;2024-01-10T05:08:46;34.07;;;16.77;;
1000;SDS011;489;47.806;12.858;2024-01-10T05:10:49;33.13;;;15.53;;
1000;SDS011;489;47.806;12.858;2024-01-10T05:12:51;31.00;;;14.23;;
1000;SDS011;489;47.806;12.858;2024-01-10T05:14:53;30.50;;;14.70;;
1000;SDS011;489;47.806;12.858;2024-01-10T05:16:55;32.83;;;14.07;;
1000;SDS011;489;47.806;12.858;2024-01-10T05:19:00;29.83;;;15.50;;
1000;SDS011;489;47.806;12.858;2024-01-10T05:21:03;29.83;;;14.97;;
1000;SDS011;489;47.806;12.858;2024-01-10T05:23:05;30.53;;;14.57;;
1000;SDS011;489;47.806;12.858;2024-01-10T05:25:08;28.50;;;14.30;;
1000;SDS011;489;47.806;12.858;2024-01-10T05:27:11;30.00;;;16.37;;
1000;SDS011;489;47.806;12.858;2024-01-10T05:29:13;34.17;;;14.97;;
1000;SDS011;489;47.806;12.858;2024-01-10T05:31:15;30.60;;;15.00;;
1000;SDS011;489;47.806;12.858;2024-01-10T05:33:17;34.00;;;14.73;;
1000;SDS011;489;47.806;12.858;2024-01-10T05:35:20;31.30;;;13.47;;
1000;SDS011;489;47.806;12.858;2024-01-10T05:37:22;29.20;;;13.87;;
1000;SDS011;489;47.806;12.858;2024-01-10T05:39:24;33.47;;;14.57;;
1000;SDS011;489;47.806;12.858;2024-01-10T05:41:26;30.37;;;13.70;;
1000;SDS011;489;47.806;12.858;2024-01-10T05:43:29;25.10;;;12.93;;
1000;SDS011;489;47.806;12.858;2024-01-10T05:45:34;33.27;;;14.13;;
1000;SDS011;489;47.806;12.858;2024-01-10T05:47:36;30.20;;;15.70;;
1000;SDS011;489;47.806;12.858;2024-01-10T05:49:38;33.97;;;14.47;;
1000;SDS011;489;47.806;12.858;2024-01-10T05:51:39;31.97;;;14.60;;
1000;SDS011;489;47.806;12.858;2024-01-10T05:53:41;27.00;;;13.00;;
1000;SDS011;489;47.806;12.858;2024-01-10T05:55:42;26.77;;;14.33;;
1000;SDS011;489;47.806;12.858;2024-01-10T05:57:44;30.43;;;13.10;;
1000;SDS011;489;47.806;12.858;2024-01-10T05:59:47;28.20;;;14.03;;
1000;SDS011;489;47.806;12.858;2024-01-10T06:01:49;34.70;;;14.67;;
1000;SDS011;489;47.806;12.858;2024-01-10T06:03:52;29.63;;;13.30;;
1000;SDS011;489;47.806;12.858;2024-01-10T06:05:53;29.20;;;14.17;;
1000;SDS011;489;47.806;12.858;2024-01-10T06:07:54;34.37;;;16.00;;
1000;SDS011;489;47.806;12.858;2024-01-10T06:09:56;30.80;;;13.67;;
1000;SDS011;489;47.806;12.858;2024-01-10T06:11:58;31.70;;;14.57;;
1000;SDS011;489;47.806;12.858;2024-01-10T06:14:00;27.73;;;14.23;;
1000;SDS011;489;47.806;12.858;2024-01-10T06:16:04;25.97;;;13.43;;
1000;SDS011;489;47.806;12.858;2024-01-10T06:18:06;29.90;;;12.90;;
1000;SDS011;489;47.806;12.858;2024-01-10T06:20:08;33.87;;;15.17;;
1000;SDS011;489;47.806;12.858;2024-01-10T06:22:11;30.00;;;15.10;;
1000;SDS011;489;47.806;12.858;2024-01-10T06:24:13;34.30;;;13.80;;
1000;SDS011;489;47.806;12.858;2024-01-10T06:26:15;30.63;;;14.17;;
1000;SDS011;489;47.806;12.858;2024-01-10T06:28:16;35.23;;;14.67;;
1000;SDS011;489;47.806;12.858;2024-01-10T06:30:18;30.03;;;15.17;;
1000;SDS011;489;47.806;12.858;2024-01-10T06:32:21;30.37;;;14.60;;
1000;SDS011;489;47.806;12.858;2024-01-10T06:34:23;25.83;;;12.90;;
1000;SDS011;489;47.806;12.858;2024-01-10T06:36:25;33.43;;;14.80;;
1000;SDS011;489;47.806;12.858;2024-01-10T06:38:27;30.27;;;14.40;;
1000;SDS011;489;47.806;12.858;2024-01-10T06:40:28;29.30;;;14.43;;
1000;SDS011;489;47.806;12.858;2024-01-10T06:42:30;32.73;;;13.37;;
1000;SDS011;489;47.806;12.858;2024-01-10T06:44:32;31.03;;;13.17;;
1000;SDS011;489;47.806;12.858;2024-01-10T06:46:34;32.50;;;16.17;;
1000;SDS011;489;47.806;12.858;2024-01-10T06:48:37;33.17;;;15.87;;
1000;SDS011;489;47.806;12.858;2024-01-10T06:50:39;28.80;;;13.63;;
1000;SDS011;489;47.806;12.858;2024-01-10T06:52:41;30.30;;;14.90;;
1000;SDS011;489;47.806;12.858;2024-01-10T06:54:43;28.80;;;13.80;;
1000;SDS011;489;47.806;12.858;2024-01-10T06:56:45;33.30;;;14.87;;
1000;SDS011;489;47.806;12.858;2024-01-10T06:59:05;27.67;;;13.93;;
1000;SDS011;489;47.806;12.858;2024-01-10T07:01:11;29.53;;;13.67;;
1000;SDS011;489;47.806;12.858;2024-01-10T07:03:13;27.90;;;15.47;;
1000;SDS011;489;47.806;12.858;2024-01-10T07:05:16;32.77;;;15.00;;
1000;SDS011;489;47.806;12.858;2024-01-10T07:07:17;29.63;;;13.37;;
1000;SDS011;489;47.806;12.858;2024-01-10T07:09:19;28.20;;;13.80;;
1000;SDS011;489;47.806;12.858;2024-01-10T07:11:20;31.70;;;12.77;;
1000;SDS011;489;47.806;12.858;2024-01-10T07:13:22;28.97;;;12.80;;
1000;SDS011;489;47.806;12.858;2024-01-10T07:15:24;26.57;;;13.53;;
1000;SDS011;489;47.806;12.858;2024-01-10T07:17:26;30.10;;;14.27;;
1000;SDS011;489;47.806;12.858;2024-01-10T07:19:28;27.13;;;12.67;;
1000;SDS011;489;47.806;12.858;2024-01-10T07:21:31;30.30;;;13.83;;
1000;SDS011;489;47.806;12.858;2024-01-10T07:23:33;31.70;;;14.70;;
1000;SDS011;489;47.806;12.858;2024-01-10T07:25:35;31.40;;;14.47;;
1000;SDS011;489;47.806;12.858;2024-01-10T07:27:37;32.93;;;15.07;;
1000;SDS011;489;47.806;12.858;2024-01-10T07:29:42;31.67;;;16.40;;
1000;SDS011;489;47.806;12.858;2024-01-10T07:31:44;31.70;;;14.13;;
1000;SDS011;489;47.806;12.858;2024-01-10T07:33:46;28.43;;;14.20;;
1000;SDS011;489;47.806;12.858;2024-01-10T07:35:48;38.13;;;15.93;;
1000;SDS011;489;47.806;12.858;2024-01-10T07:37:51;36.40;;;17.27;;
1000;SDS011;489;47.806;12.858;2024-01-10T07:39:53;37.33;;;17.93;;
1000;SDS011;489;47.806;12.858;2024-01-10T07:41:57;37.00;;;15.43;;
1000;SDS011;489;47.806;12.858;2024-01-10T07:44:02;35.13;;;15.90;;
1000;SDS011;489;47.806;12.858;2024-01-10T07:46:04;40.75;;;17.40;;
1000;SDS011;489;47.806;12.858;2024-01-10T07:48:06;38.27;;;16.00;;
1000;SDS011;489;47.806;12.858;2024-01-10T07:50:09;29.10;;;14.37;;
1000;SDS011;489;47.806;12.858;2024-01-10T07:52:13;37.30;;;16.40;;
1000;SDS011;489;47.806;12.858;2024-01-10T07:54:18;33.57;;;16.30;;
1000;SDS011;489;47.806;12.858;2024-01-10T07:56:20;30.10;;;14.13;;
1000;SDS011;489;47.806;12.858;2024-01-10T07:58:20;38.70;;;16.80;;
1000;SDS011;489;47.806;12.858;2024-01-10T08:00:23;35.07;;;17.03;;
1000;SDS011;489;47.806;12.858;2024-01-10T08:02:25;34.97;;;15.70;;
1000;SDS011;489;47.806;12.858;2024-01-10T08:04:27;35.93;;;15.10;;
1000;SDS011;489;47.806;12.858;2024-01-10T08:06:29;33.20;;;16.57;;
1000;SDS011;489;47.806;12.858;2024-01-10T08:08:31;35.20;;;16.30;;
1000;SDS011;489;47.806;12.858;2024-01-10T08:10:35;39.60;;;18.07;;
1000;SDS011;489;47.806;12.858;2024-01-10T08:12:37;35.80;;;16.77;;
1000;SDS011;489;47.806;12.858;2024-01-10T08:14:39;35.70;;;16.10;;
1000;SDS011;489;47.806;12.858;2024-01-10T08:16:41;33.63;;;15.27;;
1000;SDS011;489;47.806;12.858;2024-01-10T08:18:44;37.00;;;15.87;;
1000;SDS011;489;47.806;12.858;2024-01-10T08:20:46;28.50;;;14.40;;
1000;SDS011;489;47.806;12.858;2024-01-10T08:22:49;32.67;;;15.40;;
1000;SDS011;489;47.806;12.858;2024-01-10T08:24:50;36.40;;;15.33;;
1000;SDS011;489;47.806;12.858;2024-01-10T08:26:53;34.20;;;15.70;;
1000;SDS011;489;47.806;12.858;2024-01-10T08:28:54;38.17;;;16.07;;
1000;SDS011;489;47.806;12.858;2024-01-10T08:30:56;38.93;;;16.53;;
1000;SDS011;489;47.806;12.858;2024-01-10T08:32:58;36.63;;;16.87;;
1000;SDS011;489;47.806;12.858;2024-01-10T08:35:01;40.23;;;17.17;;
1000;SDS011;489;47.806;12.858;2024-01-10T08:37:01;37.57;;;16.50;;
1000;SDS011;489;47.806;12.858;2024-01-10T08:39:04;36.77;;;17.17;;
1000;SDS011;489;47.806;12.858;2024-01-10T08:41:07;36.00;;;16.17;;
1000;SDS011;489;47.806;12.858;2024-01-10T08:43:13;36.37;;;15.07;;
1000;SDS011;489;47.806;12.858;2024-01-10T08:45:15;34.20;;;16.10;;
1000;SDS011;489;47.806;12.858;2024-01-10T08:47:17;36.03;;;17.60;;
1000;SDS011;489;47.806;12.858;2024-01-10T08:49:20;37.67;;;18.20;;
1000;SDS011;489;47.806;12.858;2024-01-10T08:51:22;35.27;;;16.53;;
1000;SDS011;489;47.806;12.858;2024-01-10T08:53:24;35.33;;;16.20;;
1000;SDS011;489;47.806;12.858;2024-01-10T08:55:25;37.83;;;16.30;;
1000;SDS011;489;47.806;12.858;2024-01-10T08:57:27;37.30;;;16.43;;
1000;SDS011;489;47.806;12.858;2024-01-10T08:59:31;33.17;;;14.80;;
1000;SDS011;489;47.806;12.858;2024-01-10T09:01:33;33.90;;;15.67;;
1000;SDS011;489;47.806;12.858;2024-01-10T09:03:35;32.30;;;15.00;;
1000;SDS011;489;47.806;12.858;2024-01-10T09:05:38;29.37;;;15.03;;
1000;SDS011;489;47.806;12.858;2024-01-10T09:07:40;34.63;;;16.40;;
1000;SDS011;489;47.806;12.858;2024-01-10T09:09:42;34.40;;;15.00;;
1000;SDS011;489;47.806;12.858;2024-01-10T09:11:44;35.50;;;14.80;;
1000;SDS011;489;47.806;12.858;2024-01-10T09:13:48;39.53;;;17.30;;
1000;SDS011;489;47.806;12.858;2024-01-10T09:15:51;38.53;;;16.70;;
1000;SDS011;489;47.806;12.858;2024-01-10T09:17:53;36.97;;;16.60;;
1000;SDS011;489;47.806;12.858;2024-01-10T09:19:55;31.83;;;15.30;;
1000;SDS011;489;47.806;12.858;2024-01-10T09:21:57;38.10;;;15.27;;
1000;SDS011;489;47.806;12.858;2024-01-10T09:23:58;33.10;;;15.30;;
1000;SDS011;489;47.806;12.858;2024-01-10T09:26:00;39.03;;;16.73;;
1000;SDS011;489;47.806;12.858;2024-01-10T09:28:03;35.70;;;15.73;;
1000;SDS011;489;47.806;12.858;2024-01-10T09:30:06;35.33;;;15.83;;
1000;SDS011;489;47.806;12.858;2024-01-10T09:32:11;36.57;;;14.70;;
1000;SDS011;489;47.806;12.858;2024-01-10T09:34:13;31.33;;;14.70;;
1000;SDS011;489;47.806;12.858;2024-01-10T09:36:14;30.17;;;14.20;;
1000;SDS011;489;47.806;12.858;2024-01-10T09:38:16;32.30;;;17.50;;
1000;SDS011;489;47.806;12.858;2024-01-10T09:40:18;32.33;;;15.03;;
1000;SDS011;489;47.806;12.858;2024-01-10T09:42:21;36.13;;;15.90;;
1000;SDS011;489;47.806;12.858;2024-01-10T09:44:25;34.53;;;16.83;;
1000;SDS011;489;47.806;12.858;2024-01-10T09:46:28;33.53;;;16.83;;
1000;SDS011;489;47.806;12.858;2024-01-10T09:48:32;30.93;;;16.17;;
1000;SDS011;489;47.806;12.858;2024-01-10T09:50:34;35.37;;;14.80;;
1000;SDS011;489;47.806;12.858;2024-01-10T09:52:39;29.80;;;14.33;;
1000;SDS011;489;47.806;12.858;2024-01-10T09:54:43;34.10;;;15.87;;
1000;SDS011;489;47.806;12.858;2024-01-10T09:56:47;29.70;;;15.20;;
1000;SDS011;489;47.806;12.858;2024-01-10T09:58:49;30.77;;;16.63;;
1000;SDS011;489;47.806;12.858;2024-01-10T10:00:54;30.97;;;14.70;;
1000;SDS011;489;47.806;12.858;2024-01-10T10:02:59;37.37;;;15.90;;
1000;SDS011;489;47.806;12.858;2024-01-10T10:05:03;34.67;;;15.17;;
1000;SDS011;489;47.806;12.858;2024-01-10T10:07:06;33.83;;;16.47;;
1000;SDS011;489;47.806;12.858;2024-01-10T10:09:08;36.87;;;17.50;;
1000;SDS011;489;47.806;12.858;2024-01-10T10:11:12;37.40;;;16.00;;
1000;SDS011;489;47.806;12.858;2024-01-10T10:13:23;40.80;;;17.87;;
1000;SDS011;489;47.806;12.858;2024-01-10T10:15:24;30.77;;;14.83;;
1000;SDS011;489;47.806;12.858;2024-01-10T10:17:27;37.03;;;14.37;;
1000;SDS011;489;47.806;12.858;2024-01-10T10:19:29;30.53;;;14.50;;
1000;SDS011;489;47.806;12.858;2024-01-10T10:21:33;34.27;;;17.20;;
1000;SDS011;489;47.806;12.858;2024-01-10T10:23:35;34.63;;;16.00;;
1000;SDS011;489;47.806;12.858;2024-01-10T10:25:37;36.90;;;14.77;;
1000;SDS011;489;47.806;12.858;2024-01-10T10:27:44;29.03;;;13.83;;
1000;SDS011;489;47.806;12.858;2024-01-10T10:29:45;28.67;;;14.40;;
1000;SDS011;489;47.806;12.858;2024-01-10T10:31:47;29.50;;;15.87;;
1000;SDS011;489;47.806;12.858;2024-01-10T10:33:50;39.90;;;19.97;;
1000;SDS011;489;47.806;12.858;2024-01-10T10:35:52;35.30;;;16.40;;
1000;SDS011;489;47.806;12.858;2024-01-10T10:37:55;33.63;;;16.63;;
1000;SDS011;489;47.806;12.858;2024-01-10T10:39:59;34.13;;;16.33;;
1000;SDS011;489;47.806;12.858;2024-01-10T10:42:01;35.97;;;15.60;;
1000;SDS011;489;47.806;12.858;2024-01-10T10:44:03;35.63;;;16.40;;
1000;SDS011;489;47.806;12.858;2024-01-10T10:46:06;38.23;;;16.57;;
1000;SDS011;489;47.806;12.858;2024-01-10T10:48:10;32.60;;;15.17;;
1000;SDS011;489;47.806;12.858;2024-01-10T10:50:13;30.30;;;14.50;;
1000;SDS011;489;47.806;12.858;2024-01-10T10:52:20;39.20;;;17.43;;
1000;SDS011;489;47.806;12.858;2024-01-10T10:54:25;32.53;;;16.23;;
1000;SDS011;489;47.806;12.858;2024-01-10T10:56:28;31.00;;;15.50;;
1000;SDS011;489;47.806;12.858;2024-01-10T10:58:32;35.77;;;15.60;;
1000;SDS011;489;47.806;12.858;2024-01-10T11:00:35;34.80;;;14.90;;
1000;SDS011;489;47.806;12.858;2024-01-10T11:02:37;37.17;;;16.93;;
1000;SDS011;489;47.806;12.858;2024-01-10T11:04:39;32.47;;;14.23;;
1000;SDS011;489;47.806;12.858;2024-01-10T11:06:42;35.20;;;15.97;;
1000;SDS011;489;47.806;12.858;2024-01-10T11:08:44;34.60;;;16.20;;
1000;SDS011;489;47.806;12.858;2024-01-10T11:10:49;29.70;;;15.80;;
1000;SDS011;489;47.806;12.858;2024-01-10T11:12:56;36.07;;;15.30;;
1000;SDS011;489;47.806;12.858;2024-01-10T11:15:11;34.10;;;16.07;;
1000;SDS011;489;47.806;12.858;2024-01-10T11:17:30;40.17;;;17.70;;
1000;SDS011;489;47.806;12.858;2024-01-10T11:19:51;33.87;;;15.27;;
1000;SDS011;489;47.806;12.858;2024-01-10T11:22:04;37.10;;;16.17;;
1000;SDS011;489;47.806;12.858;2024-01-10T11:24:12;36.80;;;16.10;;
1000;SDS011;489;47.806;12.858;2024-01-10T11:26:15;32.73;;;14.43;;
1000;SDS011;489;47.806;12.858;2024-01-10T11:28:17;33.63;;;17.33;;
1000;SDS011;489;47.806;12.858;2024-01-10T11:30:29;37.47;;;17.73;;
1000;SDS011;489;47.806;12.858;2024-01-10T11:32:33;37.50;;;16.60;;
1000;SDS011;489;47.806;12.858;2024-01-10T11:34:36;37.67;;;17.00;;
1000;SDS011;489;47.806;12.858;2024-01-10T11:36:39;34.13;;;16.10;;
1000;SDS011;489;47.806;12.858;2024-01-10T11:38:41;36.10;;;16.07;;
1000;SDS011;489;47.806;12.858;2024-01-10T11:40:46;39.70;;;19.60;;
1000;SDS011;489;47.806;12.858;2024-01-10T11:42:50;41.23;;;17.73;;
1000;SDS011;489;47.806;12.858;2024-01-10T11:44:53;39.30;;;16.60;;
1000;SDS011;489;47.806;12.858;2024-01-10T11:46:55;39.47;;;18.70;;
1000;SDS011;489;47.806;12.858;2024-01-10T11:48:56;33.27;;;16.30;;
1000;SDS011;489;47.806;12.858;2024-01-10T11:51:18;36.87;;;16.37;;
1000;SDS011;489;47.806;12.858;2024-01-10T11:55:46;37.03;;;17.40;;
1000;SDS011;489;47.806;12.858;2024-01-10T11:57:49;36.50;;;17.40;;
1000;SDS011;489;47.806;12.858;2024-01-10T12:00:09;44.57;;;18.70;;
1000;SDS011;489;47.806;12.858;2024-01-10T12:02:15;33.80;;;16.30;;
1000;SDS011;489;47.806;12.858;2024-01-10T12:04:17;38.47;;;18.67;;
1000;SDS011;489;47.806;12.858;2024-01-10T12:06:22;36.90;;;17.47;;
1000;SDS011;489;47.806;12.858;2024-01-10T12:08:24;44.73;;;20.03;;
1000;SDS011;489;47.806;12.858;2024-01-10T12:10:27;33.60;;;17.60;;
1000;SDS011;489;47.806;12.858;2024-01-10T12:12:30;42.07;;;19.80;;
1000;SDS011;489;47.806;12.858;2024-01-10T12:14:34;41.63;;;19.90;;
1000;SDS011;489;47.806;12.858;2024-01-10T12:16:37;42.57;;;19.43;;
1000;SDS011;489;47.806;12.858;2024-01-10T12:18:39;39.10;;;17.50;;
1000;SDS011;489;47.806;12.858;2024-01-10T12:20:40;33.93;;;16.90;;
1000;SDS011;489;47.806;12.858;2024-01-10T12:22:44;41.50;;;18.50;;
1000;SDS011;489;47.806;12.858;2024-01-10T12:24:47;40.57;;;17.33;;